Time;durP1;ratioP1;P1;durP2;ratioP2;P2;SDS_P1;SDS_P2;PMS_P1;PMS_P2;Temp;Humidity;BMP_temperature;BMP_pressure;BME280_temperature;BME280_humidity;BME280_pressure;Samples;Min_cycle;Max_cycle;Signal;HPM_P1;HPM_P2
2022/05/29 00:01:55;;;;;;;7.68;3.08;;;;;;;;;;5026862;28;20216;-47
2022/05/29 00:04:23;;;;;;;5.75;3.33;;;;;;;;;;5036843;28;20200;-49
2022/05/29 00:06:52;;;;;;;11.00;3.60;;;;;;;;;;5036069;28;20240;-46
2022/05/29 00:09:31;;;;;;;9.95;3.42;;;;;;;;;;5037376;28;20201;-47
2022/05/29 00:11:59;;;;;;;7.15;3.40;;;;;;;;;;5035865;28;20208;-46
2022/05/29 00:14:27;;;;;;;6.72;3.30;;;;;;;;;;5034423;28;20287;-46
2022/05/29 00:16:54;;;;;;;12.35;3.97;;;;;;;;;;5037069;28;20229;-45
2022/05/29 00:19:22;;;;;;;7.78;3.42;;;;;;;;;;5036784;28;20659;-46
2022/05/29 00:21:49;;;;;;;11.40;4.30;;;;;;;;;;5037041;28;20204;-46
2022/05/29 00:24:16;;;;;;;7.97;4.93;;;;;;;;;;5035882;28;20204;-45
2022/05/29 00:26:43;;;;;;;6.82;3.90;;;;;;;;;;5036925;28;20274;-45
2022/05/29 00:29:10;;;;;;;8.63;3.50;;;;;;;;;;5036879;28;20216;-46
2022/05/29 00:31:37;;;;;;;9.85;3.95;;;;;;;;;;5036626;28;20632;-47
2022/05/29 00:34:04;;;;;;;8.27;3.67;;;;;;;;;;5036518;28;20201;-45
2022/05/29 00:36:38;;;;;;;10.77;4.18;;;;;;;;;;5036716;28;20232;-45
2022/05/29 00:39:07;;;;;;;6.22;3.83;;;;;;;;;;5035535;28;20273;-45
2022/05/29 00:41:36;;;;;;;8.80;3.95;;;;;;;;;;5035727;28;20223;-46
2022/05/29 00:44:14;;;;;;;7.53;3.88;;;;;;;;;;5036514;28;20201;-45
2022/05/29 00:46:53;;;;;;;7.82;3.53;;;;;;;;;;5036466;28;20219;-45
2022/05/29 00:49:26;;;;;;;10.70;3.78;;;;;;;;;;5036285;28;20219;-45
2022/05/29 00:51:57;;;;;;;9.07;3.90;;;;;;;;;;5032514;28;20533;-45
2022/05/29 00:54:24;;;;;;;9.00;4.22;;;;;;;;;;5033945;28;20201;-45
2022/05/29 00:56:52;;;;;;;6.63;3.58;;;;;;;;;;5034937;28;20227;-46
2022/05/29 00:59:22;;;;;;;6.40;3.50;;;;;;;;;;5036261;28;20215;-45
2022/05/29 01:01:50;;;;;;;11.07;3.42;;;;;;;;;;5035478;28;20204;-48
2022/05/29 01:04:17;;;;;;;6.65;3.33;;;;;;;;;;5034132;28;20197;-45
2022/05/29 01:06:44;;;;;;;8.73;3.30;;;;;;;;;;5036156;28;20240;-45
2022/05/29 01:09:11;;;;;;;7.35;3.10;;;;;;;;;;5036225;28;20204;-46
2022/05/29 01:12:00;;;;;;;9.38;3.63;;;;;;;;;;5035339;28;20205;-45
2022/05/29 01:14:51;;;;;;;5.30;3.33;;;;;;;;;;5036272;28;20208;-46
2022/05/29 01:17:39;;;;;;;6.00;2.97;;;;;;;;;;5035736;28;20261;-45
2022/05/29 01:20:31;;;;;;;6.80;3.28;;;;;;;;;;5036062;28;20200;-45
2022/05/29 01:23:35;;;;;;;9.57;3.10;;;;;;;;;;5034955;28;20308;-45
2022/05/29 01:26:08;;;;;;;10.70;3.47;;;;;;;;;;5035587;28;20208;-46
2022/05/29 01:28:38;;;;;;;6.50;3.00;;;;;;;;;;5035777;28;20292;-46
2022/05/29 01:31:12;;;;;;;7.30;3.20;;;;;;;;;;5035806;28;20201;-45
2022/05/29 01:33:45;;;;;;;11.18;3.45;;;;;;;;;;5034628;28;20538;-45
2022/05/29 01:36:45;;;;;;;9.90;3.10;;;;;;;;;;5034805;28;20197;-45
2022/05/29 01:39:19;;;;;;;6.15;3.50;;;;;;;;;;5035569;28;20204;-45
2022/05/29 01:41:55;;;;;;;5.13;2.90;;;;;;;;;;5034184;28;20204;-45
2022/05/29 01:44:26;;;;;;;10.95;3.65;;;;;;;;;;5034465;28;20207;-45
2022/05/29 01:46:57;;;;;;;7.43;3.00;;;;;;;;;;5034983;28;20701;-47
2022/05/29 01:49:30;;;;;;;9.38;3.08;;;;;;;;;;5034158;28;20280;-45
2022/05/29 01:52:01;;;;;;;7.60;3.50;;;;;;;;;;5034885;28;20215;-46
2022/05/29 01:54:51;;;;;;;11.98;3.63;;;;;;;;;;5034254;28;20296;-46
2022/05/29 01:57:45;;;;;;;8.43;3.13;;;;;;;;;;5025904;28;20239;-47
2022/05/29 02:00:13;;;;;;;5.95;2.90;;;;;;;;;;5030819;28;20247;-45
2022/05/29 02:03:03;;;;;;;7.68;3.33;;;;;;;;;;5033810;28;20200;-45
2022/05/29 02:05:34;;;;;;;6.78;3.03;;;;;;;;;;5033747;28;20259;-45
2022/05/29 02:08:11;;;;;;;7.70;3.00;;;;;;;;;;5033792;28;20221;-45
2022/05/29 02:11:04;;;;;;;8.60;3.60;;;;;;;;;;5033753;28;20200;-46
2022/05/29 02:13:34;;;;;;;9.82;3.72;;;;;;;;;;5023539;28;20211;-45
2022/05/29 02:16:07;;;;;;;6.22;3.17;;;;;;;;;;5034559;28;20205;-46
2022/05/29 02:18:40;;;;;;;8.63;3.92;;;;;;;;;;5034477;28;20240;-45
2022/05/29 02:21:11;;;;;;;8.90;3.65;;;;;;;;;;5034486;28;20742;-45
2022/05/29 02:23:42;;;;;;;7.57;3.58;;;;;;;;;;5034470;28;20197;-45
2022/05/29 02:26:14;;;;;;;7.47;3.88;;;;;;;;;;5033936;28;20570;-45
2022/05/29 02:28:45;;;;;;;7.55;4.10;;;;;;;;;;5033633;28;20658;-46
2022/05/29 02:31:31;;;;;;;8.40;3.58;;;;;;;;;;5033636;28;20173;-45
2022/05/29 02:34:13;;;;;;;9.90;3.65;;;;;;;;;;5034480;28;20200;-45
2022/05/29 02:37:21;;;;;;;8.25;3.35;;;;;;;;;;5034309;28;20291;-45
2022/05/29 02:40:13;;;;;;;5.50;3.33;;;;;;;;;;4997203;28;20217;-45
2022/05/29 02:42:48;;;;;;;8.25;3.55;;;;;;;;;;4997661;28;20524;-45
2022/05/29 02:45:38;;;;;;;7.35;4.15;;;;;;;;;;4997821;28;20198;-45
2022/05/29 02:48:23;;;;;;;10.48;3.45;;;;;;;;;;4997934;28;20272;-45
2022/05/29 02:51:09;;;;;;;6.57;3.63;;;;;;;;;;4977448;28;20229;-46
2022/05/29 02:53:42;;;;;;;7.53;3.97;;;;;;;;;;4976870;28;20346;-47
2022/05/29 02:56:09;;;;;;;8.38;3.88;;;;;;;;;;4978029;28;20704;-46
2022/05/29 02:58:38;;;;;;;7.80;4.00;;;;;;;;;;4977623;28;20226;-45
2022/05/29 03:01:28;;;;;;;10.70;4.80;;;;;;;;;;4961699;28;20220;-45
2022/05/29 03:04:36;;;;;;;11.77;4.45;;;;;;;;;;4994024;28;20217;-45
2022/05/29 03:07:24;;;;;;;8.88;4.75;;;;;;;;;;4970443;28;20257;-45
2022/05/29 03:10:15;;;;;;;10.48;4.32;;;;;;;;;;4993893;28;20203;-45
2022/05/29 03:12:54;;;;;;;6.88;4.25;;;;;;;;;;4994079;28;20217;-45
2022/05/29 03:15:49;;;;;;;9.02;4.20;;;;;;;;;;4977936;28;20221;-45
2022/05/29 03:18:50;;;;;;;10.05;4.50;;;;;;;;;;4998883;28;20240;-45
2022/05/29 03:21:53;;;;;;;8.05;4.10;;;;;;;;;;4998956;28;20198;-45
2022/05/29 03:24:30;;;;;;;7.40;3.60;;;;;;;;;;4986018;28;20288;-46
2022/05/29 03:27:08;;;;;;;10.80;4.07;;;;;;;;;;4997888;28;20213;-46
2022/05/29 03:29:41;;;;;;;8.82;4.32;;;;;;;;;;4997604;28;20264;-45
2022/05/29 03:32:09;;;;;;;9.63;4.30;;;;;;;;;;4997507;28;20671;-46
2022/05/29 03:34:36;;;;;;;8.80;3.78;;;;;;;;;;4998560;28;20258;-45
2022/05/29 03:37:03;;;;;;;9.85;4.22;;;;;;;;;;4998423;28;20293;-45
2022/05/29 03:39:30;;;;;;;8.73;4.13;;;;;;;;;;4998594;28;20232;-47
2022/05/29 03:41:57;;;;;;;8.93;3.72;;;;;;;;;;4998540;28;20216;-46
2022/05/29 03:44:24;;;;;;;10.50;4.80;;;;;;;;;;4998440;28;20518;-45
2022/05/29 03:46:51;;;;;;;6.45;3.63;;;;;;;;;;4997978;28;20206;-45
2022/05/29 03:49:20;;;;;;;7.75;3.75;;;;;;;;;;4998283;28;20198;-46
2022/05/29 03:51:48;;;;;;;9.48;3.63;;;;;;;;;;4998107;28;20202;-45
2022/05/29 03:54:15;;;;;;;8.50;3.83;;;;;;;;;;4998056;28;20225;-45
2022/05/29 03:56:42;;;;;;;9.43;3.90;;;;;;;;;;4998151;28;20297;-46
2022/05/29 03:59:09;;;;;;;8.57;3.90;;;;;;;;;;4997843;28;20300;-48
2022/05/29 04:01:38;;;;;;;8.93;3.60;;;;;;;;;;4997715;28;20264;-45
2022/05/29 04:04:05;;;;;;;9.23;3.70;;;;;;;;;;4997635;28;20633;-46
2022/05/29 04:06:34;;;;;;;9.80;3.75;;;;;;;;;;4997841;28;20767;-46
2022/05/29 04:12:07;;;;;;;7.07;3.42;;;;;;;;;;4997705;28;20292;-45
2022/05/29 04:14:38;;;;;;;6.00;3.92;;;;;;;;;;4997709;28;20632;-45
2022/05/29 04:17:06;;;;;;;9.40;3.80;;;;;;;;;;4997546;28;20202;-45
2022/05/29 04:19:33;;;;;;;7.65;3.80;;;;;;;;;;4996871;28;20545;-46
2022/05/29 04:22:00;;;;;;;7.20;3.70;;;;;;;;;;4997562;28;20198;-46
2022/05/29 04:24:27;;;;;;;6.20;3.63;;;;;;;;;;4997438;28;20202;-45
2022/05/29 04:26:54;;;;;;;7.90;3.75;;;;;;;;;;4998089;28;20202;-47
2022/05/29 04:29:22;;;;;;;7.72;4.07;;;;;;;;;;4997335;28;20260;-46
2022/05/29 04:34:36;;;;;;;10.00;4.38;;;;;;;;;;5032184;28;20628;-45
2022/05/29 04:37:04;;;;;;;10.63;4.13;;;;;;;;;;5033727;28;20660;-45
2022/05/29 04:39:34;;;;;;;11.15;4.65;;;;;;;;;;5021464;28;20205;-45
2022/05/29 04:42:03;;;;;;;8.02;3.80;;;;;;;;;;5017181;28;20205;-48
2022/05/29 04:44:30;;;;;;;6.47;3.33;;;;;;;;;;5016728;28;20201;-45
2022/05/29 04:47:01;;;;;;;6.43;3.78;;;;;;;;;;5016418;28;20224;-45
2022/05/29 04:49:29;;;;;;;8.85;3.83;;;;;;;;;;5017203;28;20300;-45
2022/05/29 04:51:56;;;;;;;8.23;4.32;;;;;;;;;;5016760;28;20205;-45
2022/05/29 04:54:24;;;;;;;7.40;3.65;;;;;;;;;;5016690;28;20197;-45
2022/05/29 04:56:50;;;;;;;9.13;3.85;;;;;;;;;;5016461;28;20197;-45
2022/05/29 04:59:17;;;;;;;7.53;3.65;;;;;;;;;;5016279;28;20615;-45
2022/05/29 05:01:44;;;;;;;7.72;3.97;;;;;;;;;;5016073;28;20216;-45
2022/05/29 05:04:11;;;;;;;12.02;4.25;;;;;;;;;;5016239;28;20193;-46
2022/05/29 05:06:38;;;;;;;8.85;4.13;;;;;;;;;;5015166;28;20295;-45
2022/05/29 05:09:06;;;;;;;8.07;3.63;;;;;;;;;;5016091;28;20233;-45
2022/05/29 05:11:33;;;;;;;7.65;3.85;;;;;;;;;;5016225;28;20293;-45
2022/05/29 05:14:00;;;;;;;7.85;3.92;;;;;;;;;;5016012;28;20213;-46
2022/05/29 05:16:27;;;;;;;9.10;3.90;;;;;;;;;;5016225;28;20209;-45
2022/05/29 05:18:54;;;;;;;11.63;3.58;;;;;;;;;;5016162;28;20237;-45
2022/05/29 05:21:21;;;;;;;6.57;3.72;;;;;;;;;;5016065;28;20225;-45
2022/05/29 05:23:48;;;;;;;8.98;4.40;;;;;;;;;;5018316;28;20271;-48
2022/05/29 05:26:19;;;;;;;6.97;3.78;;;;;;;;;;5032384;28;20204;-45
2022/05/29 05:28:46;;;;;;;8.55;4.25;;;;;;;;;;5035499;28;20193;-45
2022/05/29 05:31:13;;;;;;;8.43;3.80;;;;;;;;;;5010617;28;20229;-44
2022/05/29 05:33:41;;;;;;;6.95;4.10;;;;;;;;;;5015126;28;20225;-49
2022/05/29 05:36:10;;;;;;;8.93;4.40;;;;;;;;;;5014557;28;20233;-44
2022/05/29 05:38:38;;;;;;;7.63;4.30;;;;;;;;;;5016293;28;20259;-45
2022/05/29 05:41:05;;;;;;;11.07;4.78;;;;;;;;;;5020211;28;20221;-49
2022/05/29 05:43:32;;;;;;;9.20;4.95;;;;;;;;;;5020658;28;20315;-45
2022/05/29 05:45:59;;;;;;;7.18;3.97;;;;;;;;;;5017888;28;20248;-47
2022/05/29 05:48:29;;;;;;;10.52;3.78;;;;;;;;;;5033172;28;20314;-45
2022/05/29 05:50:57;;;;;;;8.88;4.30;;;;;;;;;;5024092;28;20225;-44
2022/05/29 05:53:24;;;;;;;7.78;4.55;;;;;;;;;;5026249;28;20225;-49
2022/05/29 05:55:51;;;;;;;11.85;4.90;;;;;;;;;;5018060;28;20687;-50
2022/05/29 05:58:19;;;;;;;11.45;4.38;;;;;;;;;;5004061;28;20227;-45
2022/05/29 06:00:47;;;;;;;12.43;4.07;;;;;;;;;;5004509;28;20217;-45
2022/05/29 06:03:15;;;;;;;7.93;3.88;;;;;;;;;;5007841;28;20233;-50
2022/05/29 06:05:42;;;;;;;10.93;3.70;;;;;;;;;;5019787;28;20240;-51
2022/05/29 06:08:09;;;;;;;10.70;4.10;;;;;;;;;;5023970;28;20278;-46
2022/05/29 06:10:36;;;;;;;8.05;3.70;;;;;;;;;;5005955;28;20227;-45
2022/05/29 06:13:05;;;;;;;7.00;3.38;;;;;;;;;;5011141;28;20213;-46
2022/05/29 06:15:33;;;;;;;8.63;3.25;;;;;;;;;;5017439;28;20241;-47
2022/05/29 06:18:00;;;;;;;10.10;2.97;;;;;;;;;;5014518;28;20240;-46
2022/05/29 06:20:27;;;;;;;6.43;2.85;;;;;;;;;;5013836;28;20271;-45
2022/05/29 06:22:54;;;;;;;7.80;2.85;;;;;;;;;;5014370;28;20225;-45
2022/05/29 06:25:21;;;;;;;10.73;3.50;;;;;;;;;;5014157;28;20691;-45
2022/05/29 06:27:48;;;;;;;8.18;3.25;;;;;;;;;;5014116;28;20224;-45
2022/05/29 06:30:16;;;;;;;7.00;3.05;;;;;;;;;;5014082;28;20229;-46
2022/05/29 06:32:43;;;;;;;10.63;3.08;;;;;;;;;;5014377;28;20324;-46
2022/05/29 06:35:12;;;;;;;5.50;3.00;;;;;;;;;;5013735;28;20229;-46
2022/05/29 06:37:41;;;;;;;6.38;3.22;;;;;;;;;;5014100;28;20229;-47
2022/05/29 06:40:10;;;;;;;7.35;2.90;;;;;;;;;;5007368;28;20309;-46
2022/05/29 06:42:37;;;;;;;8.23;3.00;;;;;;;;;;5014235;28;20228;-46
2022/05/29 06:45:05;;;;;;;7.15;3.10;;;;;;;;;;5013516;28;20563;-46
2022/05/29 06:47:33;;;;;;;5.45;2.78;;;;;;;;;;5006464;28;20683;-46
2022/05/29 06:50:00;;;;;;;6.57;2.63;;;;;;;;;;5004494;28;20546;-46
2022/05/29 06:52:31;;;;;;;8.30;2.80;;;;;;;;;;5013902;28;20225;-46
2022/05/29 06:54:59;;;;;;;9.45;3.08;;;;;;;;;;5013825;28;20240;-47
2022/05/29 06:57:43;;;;;;;8.15;2.67;;;;;;;;;;5013030;28;20221;-45
2022/05/29 07:08:32;;;;;;;6.35;2.60;;;;;;;;;;5012584;28;20225;-52
2022/05/29 07:11:03;;;;;;;6.82;2.88;;;;;;;;;;5013377;28;20668;-49
2022/05/29 07:13:32;;;;;;;6.25;2.70;;;;;;;;;;5013604;28;20221;-49
2022/05/29 07:15:58;;;;;;;6.78;2.40;;;;;;;;;;5012416;28;20233;-48
2022/05/29 07:18:26;;;;;;;5.97;2.65;;;;;;;;;;5013613;28;20241;-50
2022/05/29 07:20:53;;;;;;;7.28;2.55;;;;;;;;;;5013577;28;20228;-49
2022/05/29 07:23:20;;;;;;;5.18;2.00;;;;;;;;;;5014775;28;20229;-52
2022/05/29 07:25:47;;;;;;;5.85;2.50;;;;;;;;;;5016804;28;20665;-51
2022/05/29 07:28:14;;;;;;;5.20;2.28;;;;;;;;;;5016907;28;20239;-52
2022/05/29 07:30:41;;;;;;;7.97;2.15;;;;;;;;;;5016572;28;20222;-49
2022/05/29 07:33:09;;;;;;;4.95;2.25;;;;;;;;;;5016689;28;20225;-50
2022/05/29 07:35:36;;;;;;;5.85;2.10;;;;;;;;;;5016859;28;20735;-51
2022/05/29 07:38:03;;;;;;;8.10;1.98;;;;;;;;;;5016721;28;20569;-49
2022/05/29 07:40:30;;;;;;;3.38;1.70;;;;;;;;;;5017135;28;20236;-50
2022/05/29 07:45:44;;;;;;;4.43;1.90;;;;;;;;;;5016424;28;20696;-53
2022/05/29 07:48:11;;;;;;;9.25;2.25;;;;;;;;;;5016351;28;20260;-49
2022/05/29 07:50:39;;;;;;;8.82;1.65;;;;;;;;;;5016309;28;20706;-51
2022/05/29 07:53:06;;;;;;;5.25;1.65;;;;;;;;;;5016647;28;20236;-50
2022/05/29 07:55:33;;;;;;;3.65;1.58;;;;;;;;;;5016812;28;20320;-49
2022/05/29 07:58:00;;;;;;;7.93;2.20;;;;;;;;;;5016843;28;20232;-50
2022/05/29 08:00:28;;;;;;;5.20;2.03;;;;;;;;;;5027350;28;20264;-49
2022/05/29 08:02:54;;;;;;;8.65;1.90;;;;;;;;;;5036173;28;20228;-51
2022/05/29 08:05:22;;;;;;;5.68;1.75;;;;;;;;;;5032421;28;20240;-50
2022/05/29 08:07:51;;;;;;;4.88;1.65;;;;;;;;;;5036699;28;20232;-51
2022/05/29 08:10:20;;;;;;;4.45;1.85;;;;;;;;;;5023274;28;20258;-53
2022/05/29 08:12:47;;;;;;;7.65;3.58;;;;;;;;;;5014394;28;20221;-50
2022/05/29 08:15:14;;;;;;;6.88;1.70;;;;;;;;;;5014448;28;20227;-50
2022/05/29 08:17:42;;;;;;;4.30;1.77;;;;;;;;;;5015227;28;20228;-49
2022/05/29 08:20:11;;;;;;;10.63;3.50;;;;;;;;;;5014589;28;20241;-53
2022/05/29 08:22:39;;;;;;;7.47;2.00;;;;;;;;;;5012767;28;20240;-50
2022/05/29 08:30:43;;;;;;;4.32;1.65;;;;;;;;;;5010746;28;20253;-50
2022/05/29 08:33:14;;;;;;;7.60;2.00;;;;;;;;;;5014834;28;20233;-47
2022/05/29 08:35:43;;;;;;;3.63;1.58;;;;;;;;;;5010756;28;20221;-47
2022/05/29 08:38:12;;;;;;;4.53;2.25;;;;;;;;;;5014312;28;20751;-47
2022/05/29 08:40:42;;;;;;;4.68;2.13;;;;;;;;;;5009189;28;20268;-49
2022/05/29 08:43:27;;;;;;;4.65;1.48;;;;;;;;;;5014462;28;20229;-51
2022/05/29 08:45:54;;;;;;;8.32;2.25;;;;;;;;;;5013558;28;20225;-47
2022/05/29 08:48:24;;;;;;;8.40;1.95;;;;;;;;;;5014443;28;20620;-48
2022/05/29 08:50:56;;;;;;;6.60;1.50;;;;;;;;;;5014191;28;20241;-48
2022/05/29 08:53:34;;;;;;;6.05;1.60;;;;;;;;;;5012381;28;20596;-48
2022/05/29 08:56:10;;;;;;;4.97;1.40;;;;;;;;;;5012500;28;20228;-50
2022/05/29 08:58:57;;;;;;;6.75;1.55;;;;;;;;;;5010683;28;20224;-48
2022/05/29 09:01:36;;;;;;;3.33;1.58;;;;;;;;;;4995529;28;20241;-50
2022/05/29 09:04:08;;;;;;;8.70;1.40;;;;;;;;;;5014378;28;20236;-48
2022/05/29 09:06:41;;;;;;;2.80;1.52;;;;;;;;;;5014451;28;20676;-49
2022/05/29 09:09:24;;;;;;;6.68;1.42;;;;;;;;;;5014127;28;20546;-49
2022/05/29 09:11:55;;;;;;;7.10;1.73;;;;;;;;;;5020571;28;20228;-48
2022/05/29 09:14:23;;;;;;;4.93;1.40;;;;;;;;;;5008754;28;20221;-48
2022/05/29 09:17:09;;;;;;;5.97;1.52;;;;;;;;;;5003998;28;20252;-48
2022/05/29 09:19:41;;;;;;;3.30;1.40;;;;;;;;;;4995331;28;20241;-48
2022/05/29 09:22:26;;;;;;;3.72;1.40;;;;;;;;;;5013606;28;20328;-47
2022/05/29 09:25:08;;;;;;;6.97;2.00;;;;;;;;;;5002893;28;20222;-48
2022/05/29 09:27:37;;;;;;;4.47;1.30;;;;;;;;;;5013678;28;20217;-48
2022/05/29 09:30:06;;;;;;;3.85;1.20;;;;;;;;;;4973943;28;20226;-47
2022/05/29 09:32:34;;;;;;;4.80;1.33;;;;;;;;;;4995414;28;20258;-47
2022/05/29 09:35:07;;;;;;;3.47;1.25;;;;;;;;;;4995070;28;20237;-48
2022/05/29 09:37:43;;;;;;;5.47;1.50;;;;;;;;;;4995316;28;20229;-47
2022/05/29 09:40:16;;;;;;;2.60;1.30;;;;;;;;;;4998734;28;20287;-48
2022/05/29 09:42:43;;;;;;;3.40;1.33;;;;;;;;;;5026208;28;20542;-47
2022/05/29 09:45:25;;;;;;;7.25;1.40;;;;;;;;;;5004639;28;20217;-47
2022/05/29 09:50:57;;;;;;;4.65;1.48;;;;;;;;;;5001008;28;20229;-46
2022/05/29 09:53:28;;;;;;;4.90;1.50;;;;;;;;;;5013732;28;20232;-46
2022/05/29 09:56:07;;;;;;;6.25;1.45;;;;;;;;;;5026365;28;20241;-52
2022/05/29 09:58:43;;;;;;;4.07;1.40;;;;;;;;;;4995698;28;20232;-47
2022/05/29 10:01:10;;;;;;;5.75;2.03;;;;;;;;;;5011121;28;20738;-46
2022/05/29 10:03:49;;;;;;;3.97;1.67;;;;;;;;;;5009293;28;20225;-47
2022/05/29 10:06:34;;;;;;;3.28;1.88;;;;;;;;;;5008002;28;20234;-48
2022/05/29 10:09:10;;;;;;;5.07;1.50;;;;;;;;;;5003675;28;20229;-48
2022/05/29 10:11:38;;;;;;;9.32;1.90;;;;;;;;;;4995595;28;20561;-48
2022/05/29 10:14:24;;;;;;;3.78;1.50;;;;;;;;;;4994022;28;20563;-48
2022/05/29 10:16:55;;;;;;;6.18;1.40;;;;;;;;;;4995233;28;20229;-47
2022/05/29 10:19:36;;;;;;;3.50;1.50;;;;;;;;;;4998344;28;20252;-52
2022/05/29 10:22:14;;;;;;;5.28;2.00;;;;;;;;;;5007068;28;20236;-49
2022/05/29 10:24:42;;;;;;;5.00;1.60;;;;;;;;;;5006874;28;20604;-49
2022/05/29 10:27:34;;;;;;;8.05;1.75;;;;;;;;;;5002822;28;20229;-48
2022/05/29 10:30:03;;;;;;;3.58;1.48;;;;;;;;;;5008020;28;20244;-52
2022/05/29 10:32:32;;;;;;;7.93;1.98;;;;;;;;;;5004421;28;20225;-47
2022/05/29 10:35:26;;;;;;;7.38;2.25;;;;;;;;;;4999059;28;20244;-51
2022/05/29 10:37:55;;;;;;;7.40;2.25;;;;;;;;;;5002436;28;21074;-53
2022/05/29 10:40:27;;;;;;;7.00;1.98;;;;;;;;;;4999835;28;20321;-50
2022/05/29 10:42:59;;;;;;;8.38;2.75;;;;;;;;;;5003667;28;20664;-50
2022/05/29 10:45:31;;;;;;;7.13;2.47;;;;;;;;;;5002429;28;20235;-49
2022/05/29 10:48:11;;;;;;;5.65;2.53;;;;;;;;;;5004881;28;20225;-50
2022/05/29 10:50:59;;;;;;;4.97;2.33;;;;;;;;;;5003303;28;20659;-48
2022/05/29 10:53:45;;;;;;;6.68;2.50;;;;;;;;;;5001952;28;20239;-48
2022/05/29 10:56:44;;;;;;;6.43;2.17;;;;;;;;;;5007740;28;20213;-47
2022/05/29 10:59:17;;;;;;;5.40;2.10;;;;;;;;;;5024243;28;20233;-51
2022/05/29 11:05:52;;;;;;;6.68;2.10;;;;;;;;;;5012407;28;20225;-50
2022/05/29 11:08:40;;;;;;;5.63;1.92;;;;;;;;;;4996215;28;20271;-52
2022/05/29 11:11:23;;;;;;;7.72;2.65;;;;;;;;;;5013850;28;20221;-49
2022/05/29 11:13:53;;;;;;;6.63;2.20;;;;;;;;;;4997035;28;20244;-49
2022/05/29 11:16:29;;;;;;;6.45;2.55;;;;;;;;;;5015178;28;20221;-49
2022/05/29 11:19:29;;;;;;;9.02;2.95;;;;;;;;;;5014208;28;20235;-51
2022/05/29 11:22:13;;;;;;;4.82;2.88;;;;;;;;;;4974025;28;20234;-52
2022/05/29 11:25:14;;;;;;;5.68;2.40;;;;;;;;;;4973904;28;20250;-54
2022/05/29 11:28:30;;;;;;;5.38;2.75;;;;;;;;;;4955453;28;20292;-48
2022/05/29 11:31:25;;;;;;;10.02;2.90;;;;;;;;;;4972418;28;20225;-52
2022/05/29 11:33:55;;;;;;;5.30;2.78;;;;;;;;;;4970788;28;20673;-53
2022/05/29 11:37:00;;;;;;;8.93;2.70;;;;;;;;;;4969314;28;20223;-49
2022/05/29 11:39:31;;;;;;;5.43;1.80;;;;;;;;;;4973646;28;20590;-48
2022/05/29 11:42:33;;;;;;;3.95;1.70;;;;;;;;;;4973113;28;20593;-47
2022/05/29 11:45:04;;;;;;;5.43;1.63;;;;;;;;;;4957936;28;20241;-51
2022/05/29 11:53:37;;;;;;;3.95;1.60;;;;;;;;;;4997452;28;20320;-50
2022/05/29 11:56:10;;;;;;;2.75;1.30;;;;;;;;;;5012014;28;20221;-52
2022/05/29 11:58:56;;;;;;;3.10;1.15;;;;;;;;;;5014112;28;20221;-49
2022/05/29 12:01:27;;;;;;;5.45;1.80;;;;;;;;;;5012039;28;20550;-48
2022/05/29 12:04:00;;;;;;;9.88;1.77;;;;;;;;;;5012983;28;20213;-49
2022/05/29 12:06:33;;;;;;;5.57;1.75;;;;;;;;;;5011853;28;20606;-51
2022/05/29 12:09:15;;;;;;;5.50;1.48;;;;;;;;;;5013232;28;20234;-54
2022/05/29 12:11:49;;;;;;;7.82;2.00;;;;;;;;;;5011168;28;20229;-50
2022/05/29 12:14:23;;;;;;;5.10;2.10;;;;;;;;;;5014719;28;20225;-48
2022/05/29 12:17:28;;;;;;;4.65;2.05;;;;;;;;;;5013058;28;20237;-55
2022/05/29 12:19:58;;;;;;;5.57;1.67;;;;;;;;;;4984870;28;20312;-51
2022/05/29 12:22:30;;;;;;;4.45;1.63;;;;;;;;;;5011062;28;20246;-53
2022/05/29 12:24:57;;;;;;;3.40;1.85;;;;;;;;;;5014314;28;20240;-56
2022/05/29 12:27:27;;;;;;;7.20;1.80;;;;;;;;;;5012698;28;20257;-50
2022/05/29 12:29:59;;;;;;;4.80;1.80;;;;;;;;;;5004624;28;20229;-46
2022/05/29 12:32:30;;;;;;;2.55;1.30;;;;;;;;;;5009789;28;20676;-46
2022/05/29 12:35:18;;;;;;;5.95;2.10;;;;;;;;;;5006046;28;20228;-48
2022/05/29 12:38:01;;;;;;;4.85;1.90;;;;;;;;;;5005586;28;20222;-51
2022/05/29 12:40:34;;;;;;;10.48;1.85;;;;;;;;;;5000639;28;20237;-47
2022/05/29 12:43:23;;;;;;;4.78;1.63;;;;;;;;;;5001786;28;20304;-46
2022/05/29 12:46:06;;;;;;;5.80;2.28;;;;;;;;;;5003757;28;20218;-49
2022/05/29 12:48:36;;;;;;;7.18;2.10;;;;;;;;;;5001294;28;20225;-46
2022/05/29 12:51:20;;;;;;;3.08;1.75;;;;;;;;;;5007153;28;20237;-45
2022/05/29 12:54:06;;;;;;;8.85;1.80;;;;;;;;;;5007410;28;20226;-51
2022/05/29 12:56:49;;;;;;;4.90;1.40;;;;;;;;;;5002959;28;20245;-47
2022/05/29 12:59:21;;;;;;;6.55;1.58;;;;;;;;;;5007820;28;20669;-45
2022/05/29 13:02:07;;;;;;;4.03;1.33;;;;;;;;;;5002426;28;20225;-45
2022/05/29 13:04:55;;;;;;;4.07;1.40;;;;;;;;;;5003832;28;20230;-47
2022/05/29 13:07:24;;;;;;;2.95;1.17;;;;;;;;;;5004358;28;20226;-45
2022/05/29 13:10:09;;;;;;;2.60;1.30;;;;;;;;;;5004678;28;20287;-47
2022/05/29 13:12:41;;;;;;;4.47;1.40;;;;;;;;;;5006238;28;20213;-46
2022/05/29 13:15:12;;;;;;;4.57;1.33;;;;;;;;;;5004658;28;20221;-48
2022/05/29 13:17:40;;;;;;;3.80;1.38;;;;;;;;;;5005420;28;20295;-45
2022/05/29 13:20:13;;;;;;;9.23;1.40;;;;;;;;;;5003709;28;20610;-51
2022/05/29 13:22:55;;;;;;;6.57;1.20;;;;;;;;;;5013181;28;20563;-46
2022/05/29 13:25:47;;;;;;;3.65;1.40;;;;;;;;;;5013939;28;20221;-45
2022/05/29 13:28:41;;;;;;;3.75;1.30;;;;;;;;;;4975087;28;20664;-46
2022/05/29 13:31:12;;;;;;;3.78;1.35;;;;;;;;;;4989527;28;20229;-46
2022/05/29 13:33:47;;;;;;;4.75;1.35;;;;;;;;;;5009626;28;20559;-45
2022/05/29 13:36:47;;;;;;;5.72;1.50;;;;;;;;;;5001942;28;20284;-50
2022/05/29 13:39:23;;;;;;;2.53;1.30;;;;;;;;;;5006868;28;20276;-47
2022/05/29 13:41:59;;;;;;;3.30;1.58;;;;;;;;;;5002642;28;20238;-45
2022/05/29 13:44:32;;;;;;;4.45;1.40;;;;;;;;;;5004603;28;20217;-51
2022/05/29 13:47:18;;;;;;;5.10;1.63;;;;;;;;;;5004848;28;20225;-45
2022/05/29 13:49:48;;;;;;;5.10;1.60;;;;;;;;;;5005468;28;20276;-45
2022/05/29 13:52:25;;;;;;;5.88;1.80;;;;;;;;;;5002703;28;20803;-49
2022/05/29 13:55:06;;;;;;;3.95;1.70;;;;;;;;;;5006189;28;20217;-47
2022/05/29 14:07:14;;;;;;;3.20;1.67;;;;;;;;;;5003511;28;20696;-47
2022/05/29 14:10:15;;;;;;;3.42;1.48;;;;;;;;;;5004054;28;20711;-44
2022/05/29 14:12:51;;;;;;;2.85;1.17;;;;;;;;;;4960489;28;20218;-45
2022/05/29 14:15:37;;;;;;;7.47;1.70;;;;;;;;;;4956662;28;20227;-48
2022/05/29 14:18:12;;;;;;;6.30;2.22;;;;;;;;;;4954005;28;20629;-45
2022/05/29 14:21:00;;;;;;;5.68;1.40;;;;;;;;;;4960444;28;20305;-46
2022/05/29 14:23:44;;;;;;;5.25;1.80;;;;;;;;;;4955444;28;20255;-45
2022/05/29 14:26:52;;;;;;;5.95;1.90;;;;;;;;;;4955480;28;20243;-45
2022/05/29 14:29:24;;;;;;;3.50;1.60;;;;;;;;;;4942256;28;20326;-46
2022/05/29 14:32:00;;;;;;;5.53;2.08;;;;;;;;;;4954506;28;20306;-45
2022/05/29 14:34:35;;;;;;;3.45;1.60;;;;;;;;;;4971892;28;20275;-47
2022/05/29 14:37:06;;;;;;;4.03;1.45;;;;;;;;;;4954249;28;20229;-46
2022/05/29 14:39:36;;;;;;;4.93;1.42;;;;;;;;;;4961973;28;20313;-45
2022/05/29 14:42:22;;;;;;;4.97;1.27;;;;;;;;;;4962453;28;20243;-48
2022/05/29 14:45:13;;;;;;;3.92;1.30;;;;;;;;;;4963352;28;20231;-51
2022/05/29 14:47:42;;;;;;;4.10;1.25;;;;;;;;;;4968923;28;20532;-47
2022/05/29 14:50:11;;;;;;;4.63;1.52;;;;;;;;;;5009431;28;20232;-50
2022/05/29 14:52:55;;;;;;;7.85;1.70;;;;;;;;;;5003336;28;20232;-48
2022/05/29 14:55:29;;;;;;;8.40;1.70;;;;;;;;;;5012849;28;20221;-53
2022/05/29 14:57:59;;;;;;;7.57;1.40;;;;;;;;;;5008098;28;20687;-46
2022/05/29 15:00:39;;;;;;;2.28;0.95;;;;;;;;;;5013278;28;20237;-48
2022/05/29 15:03:12;;;;;;;5.13;1.27;;;;;;;;;;5013608;28;20228;-49
2022/05/29 15:05:47;;;;;;;8.30;1.40;;;;;;;;;;5044367;28;20667;-49
2022/05/29 15:11:06;;;;;;;6.95;1.42;;;;;;;;;;5034228;28;20989;-51
2022/05/29 15:14:01;;;;;;;3.08;1.13;;;;;;;;;;5008300;28;20217;-53
2022/05/29 15:16:44;;;;;;;6.30;1.58;;;;;;;;;;5007771;28;20667;-52
2022/05/29 15:19:14;;;;;;;3.25;1.20;;;;;;;;;;5009747;28;20231;-50
2022/05/29 15:24:40;;;;;;;3.03;1.23;;;;;;;;;;5010274;28;20810;-48
2022/05/29 15:27:10;;;;;;;3.20;1.08;;;;;;;;;;5012578;28;20543;-49
2022/05/29 15:29:51;;;;;;;2.47;1.05;;;;;;;;;;5012460;28;20294;-51
2022/05/29 15:32:20;;;;;;;6.65;1.55;;;;;;;;;;5012162;28;20229;-51
2022/05/29 15:35:15;;;;;;;2.88;0.95;;;;;;;;;;5012441;28;20300;-48
2022/05/29 15:38:21;;;;;;;3.35;1.15;;;;;;;;;;5011337;28;20295;-50
2022/05/29 15:41:25;;;;;;;2.90;1.15;;;;;;;;;;5009462;28;20339;-51
2022/05/29 15:44:01;;;;;;;5.07;1.02;;;;;;;;;;5010556;28;20228;-55
2022/05/29 15:47:07;;;;;;;26.17;2.08;;;;;;;;;;5015839;28;20665;-52
2022/05/29 15:49:54;;;;;;;4.53;1.45;;;;;;;;;;4994126;28;20245;-48
2022/05/29 15:52:53;;;;;;;4.50;1.30;;;;;;;;;;5014484;28;20231;-48
2022/05/29 15:55:37;;;;;;;2.40;1.02;;;;;;;;;;5036354;28;20222;-50
2022/05/29 15:58:24;;;;;;;2.92;1.00;;;;;;;;;;5008018;28;20217;-48
2022/05/29 16:01:07;;;;;;;5.40;1.17;;;;;;;;;;5012278;28;20243;-51
2022/05/29 16:03:36;;;;;;;4.80;1.30;;;;;;;;;;5010324;28;20233;-47
2022/05/29 16:06:09;;;;;;;4.43;1.00;;;;;;;;;;5013752;28;20233;-51
2022/05/29 16:08:37;;;;;;;6.30;1.50;;;;;;;;;;5019144;28;20606;-53
2022/05/29 16:11:06;;;;;;;1.95;0.98;;;;;;;;;;5013057;28;20668;-50
2022/05/29 16:13:40;;;;;;;4.45;1.25;;;;;;;;;;4992876;28;20584;-49
2022/05/29 16:16:24;;;;;;;3.03;1.30;;;;;;;;;;5012092;28;20251;-51
2022/05/29 16:19:07;;;;;;;2.95;1.00;;;;;;;;;;5012751;28;20221;-49